sensor_id;sensor_type;location;lat;lon;timestamp;pressure;altitude;pressure_sealevel;temperature;humidity
43298;BME280;28892;55.640;37.532;2023-12-04T00:00:25;97488.22;;;-3.65;61.51
43298;BME280;28892;55.640;37.532;2023-12-04T00:02:51;97489.00;;;-3.74;61.66
43298;BME280;28892;55.640;37.532;2023-12-04T00:05:17;97486.03;;;-3.70;61.50
43298;BME280;28892;55.640;37.532;2023-12-04T00:07:43;97492.72;;;-3.67;61.43
43298;BME280;28892;55.640;37.532;2023-12-04T00:10:09;97496.66;;;-3.63;61.69
43298;BME280;28892;55.640;37.532;2023-12-04T00:12:35;97501.06;;;-3.54;61.33
43298;BME280;28892;55.640;37.532;2023-12-04T00:15:02;97505.28;;;-3.53;61.41
43298;BME280;28892;55.640;37.532;2023-12-04T00:17:28;97500.66;;;-3.49;61.38
43298;BME280;28892;55.640;37.532;2023-12-04T00:19:54;97509.38;;;-3.50;61.64
43298;BME280;28892;55.640;37.532;2023-12-04T00:22:21;97508.28;;;-3.38;61.26
43298;BME280;28892;55.640;37.532;2023-12-04T00:24:46;97505.41;;;-3.34;60.83
43298;BME280;28892;55.640;37.532;2023-12-04T00:27:12;97508.00;;;-3.54;60.57
43298;BME280;28892;55.640;37.532;2023-12-04T00:29:38;97518.31;;;-3.84;60.68
43298;BME280;28892;55.640;37.532;2023-12-04T00:32:04;97526.09;;;-3.74;61.17
43298;BME280;28892;55.640;37.532;2023-12-04T00:34:32;97538.94;;;-3.72;61.23
43298;BME280;28892;55.640;37.532;2023-12-04T00:36:58;97540.41;;;-3.80;61.06
43298;BME280;28892;55.640;37.532;2023-12-04T00:39:24;97542.03;;;-3.88;61.11
43298;BME280;28892;55.640;37.532;2023-12-04T00:41:50;97537.81;;;-3.80;61.39
43298;BME280;28892;55.640;37.532;2023-12-04T00:44:16;97547.94;;;-3.67;61.40
43298;BME280;28892;55.640;37.532;2023-12-04T00:46:41;97553.69;;;-3.53;60.48
43298;BME280;28892;55.640;37.532;2023-12-04T00:49:07;97552.19;;;-3.66;60.95
43298;BME280;28892;55.640;37.532;2023-12-04T00:51:39;97547.19;;;-3.88;60.75
43298;BME280;28892;55.640;37.532;2023-12-04T00:54:05;97563.72;;;-4.21;61.46
43298;BME280;28892;55.640;37.532;2023-12-04T00:56:30;97562.75;;;-4.19;62.00
43298;BME280;28892;55.640;37.532;2023-12-04T00:58:56;97565.25;;;-4.08;62.02
43298;BME280;28892;55.640;37.532;2023-12-04T01:01:21;97563.53;;;-3.98;62.12
43298;BME280;28892;55.640;37.532;2023-12-04T01:03:47;97564.75;;;-4.02;61.81
43298;BME280;28892;55.640;37.532;2023-12-04T01:06:20;97573.00;;;-3.87;61.53
43298;BME280;28892;55.640;37.532;2023-12-04T01:08:48;97572.44;;;-3.81;61.04
43298;BME280;28892;55.640;37.532;2023-12-04T01:11:14;97573.56;;;-3.73;60.81
43298;BME280;28892;55.640;37.532;2023-12-04T01:13:40;97570.41;;;-3.77;60.67
43298;BME280;28892;55.640;37.532;2023-12-04T01:16:07;97572.59;;;-3.82;60.49
43298;BME280;28892;55.640;37.532;2023-12-04T01:18:33;97577.50;;;-3.89;60.77
43298;BME280;28892;55.640;37.532;2023-12-04T01:20:59;97586.72;;;-4.27;60.96
43298;BME280;28892;55.640;37.532;2023-12-04T01:23:25;97582.13;;;-4.14;61.04
43298;BME280;28892;55.640;37.532;2023-12-04T01:25:50;97585.28;;;-4.10;61.35
43298;BME280;28892;55.640;37.532;2023-12-04T01:28:16;97575.22;;;-4.03;61.65
43298;BME280;28892;55.640;37.532;2023-12-04T01:30:42;97572.34;;;-4.10;61.50
43298;BME280;28892;55.640;37.532;2023-12-04T01:33:08;97580.38;;;-3.82;60.74
43298;BME280;28892;55.640;37.532;2023-12-04T01:35:33;97579.22;;;-3.99;60.62
43298;BME280;28892;55.640;37.532;2023-12-04T01:37:59;97577.66;;;-4.12;60.90
43298;BME280;28892;55.640;37.532;2023-12-04T01:40:25;97572.78;;;-4.05;61.15
43298;BME280;28892;55.640;37.532;2023-12-04T01:42:51;97576.66;;;-3.89;61.14
43298;BME280;28892;55.640;37.532;2023-12-04T01:45:17;97577.81;;;-3.72;60.38
43298;BME280;28892;55.640;37.532;2023-12-04T01:47:42;97572.59;;;-4.13;59.42
43298;BME280;28892;55.640;37.532;2023-12-04T01:50:08;97573.97;;;-4.09;60.48
43298;BME280;28892;55.640;37.532;2023-12-04T01:52:34;97583.47;;;-4.19;60.84
43298;BME280;28892;55.640;37.532;2023-12-04T01:55:01;97585.59;;;-4.03;60.77
43298;BME280;28892;55.640;37.532;2023-12-04T01:57:28;97577.31;;;-3.97;60.33
43298;BME280;28892;55.640;37.532;2023-12-04T01:59:53;97588.06;;;-4.02;60.43
43298;BME280;28892;55.640;37.532;2023-12-04T02:02:19;97579.38;;;-4.22;60.33
43298;BME280;28892;55.640;37.532;2023-12-04T02:04:45;97582.28;;;-4.15;60.62
43298;BME280;28892;55.640;37.532;2023-12-04T02:07:11;97597.81;;;-4.15;60.63
43298;BME280;28892;55.640;37.532;2023-12-04T02:09:37;97597.16;;;-4.08;60.31
43298;BME280;28892;55.640;37.532;2023-12-04T02:12:03;97595.84;;;-4.02;60.40
43298;BME280;28892;55.640;37.532;2023-12-04T02:14:29;97604.59;;;-3.93;60.09
43298;BME280;28892;55.640;37.532;2023-12-04T02:16:55;97604.16;;;-3.98;60.09
43298;BME280;28892;55.640;37.532;2023-12-04T02:19:21;97601.59;;;-3.88;60.20
43298;BME280;28892;55.640;37.532;2023-12-04T02:21:47;97610.78;;;-3.84;60.04
43298;BME280;28892;55.640;37.532;2023-12-04T02:24:13;97614.84;;;-3.82;59.64
43298;BME280;28892;55.640;37.532;2023-12-04T02:26:47;97615.69;;;-4.33;59.51
43298;BME280;28892;55.640;37.532;2023-12-04T02:29:20;97606.47;;;-4.05;59.92
43298;BME280;28892;55.640;37.532;2023-12-04T02:31:48;97621.72;;;-4.54;59.58
43298;BME280;28892;55.640;37.532;2023-12-04T02:34:16;97612.03;;;-4.31;60.51
43298;BME280;28892;55.640;37.532;2023-12-04T02:36:42;97619.28;;;-4.25;60.09
43298;BME280;28892;55.640;37.532;2023-12-04T02:39:08;97621.25;;;-4.17;59.56
43298;BME280;28892;55.640;37.532;2023-12-04T02:41:34;97619.78;;;-4.10;60.19
43298;BME280;28892;55.640;37.532;2023-12-04T02:44:00;97628.91;;;-4.15;60.15
43298;BME280;28892;55.640;37.532;2023-12-04T02:46:25;97626.34;;;-4.05;59.73
43298;BME280;28892;55.640;37.532;2023-12-04T02:48:51;97626.09;;;-4.02;59.45
43298;BME280;28892;55.640;37.532;2023-12-04T02:51:17;97642.06;;;-4.18;59.52
43298;BME280;28892;55.640;37.532;2023-12-04T02:53:42;97649.56;;;-4.79;60.04
43298;BME280;28892;55.640;37.532;2023-12-04T02:56:08;97656.91;;;-4.96;60.75
43298;BME280;28892;55.640;37.532;2023-12-04T02:58:34;97664.06;;;-4.34;60.16
43298;BME280;28892;55.640;37.532;2023-12-04T03:01:00;97667.66;;;-4.25;60.14
43298;BME280;28892;55.640;37.532;2023-12-04T03:03:25;97677.38;;;-4.60;59.82
43298;BME280;28892;55.640;37.532;2023-12-04T03:05:51;97680.88;;;-4.28;60.25
43298;BME280;28892;55.640;37.532;2023-12-04T03:08:17;97708.44;;;-4.60;60.41
43298;BME280;28892;55.640;37.532;2023-12-04T03:10:42;97700.47;;;-4.47;60.80
43298;BME280;28892;55.640;37.532;2023-12-04T03:13:08;97697.03;;;-4.36;60.28
43298;BME280;28892;55.640;37.532;2023-12-04T03:15:34;97700.06;;;-4.31;60.46
43298;BME280;28892;55.640;37.532;2023-12-04T03:17:59;97719.09;;;-4.53;60.48
43298;BME280;28892;55.640;37.532;2023-12-04T03:20:26;97724.56;;;-4.35;60.92
43298;BME280;28892;55.640;37.532;2023-12-04T03:22:52;97715.34;;;-4.07;60.59
43298;BME280;28892;55.640;37.532;2023-12-04T03:25:17;97731.22;;;-4.00;60.04
43298;BME280;28892;55.640;37.532;2023-12-04T03:27:43;97743.91;;;-3.97;60.16
43298;BME280;28892;55.640;37.532;2023-12-04T03:30:09;97738.53;;;-3.84;60.02
43298;BME280;28892;55.640;37.532;2023-12-04T03:32:35;97721.25;;;-3.83;59.69
43298;BME280;28892;55.640;37.532;2023-12-04T03:35:01;97745.59;;;-4.07;59.11
43298;BME280;28892;55.640;37.532;2023-12-04T03:37:29;97765.78;;;-4.11;59.12
43298;BME280;28892;55.640;37.532;2023-12-04T03:39:55;97763.50;;;-4.04;59.63
43298;BME280;28892;55.640;37.532;2023-12-04T03:42:20;97767.69;;;-3.91;59.29
43298;BME280;28892;55.640;37.532;2023-12-04T03:44:46;97788.00;;;-4.08;58.48
43298;BME280;28892;55.640;37.532;2023-12-04T03:47:12;97796.84;;;-4.11;59.06
43298;BME280;28892;55.640;37.532;2023-12-04T03:49:37;97805.75;;;-4.03;59.34
43298;BME280;28892;55.640;37.532;2023-12-04T03:52:03;97798.22;;;-4.39;59.02
43298;BME280;28892;55.640;37.532;2023-12-04T03:54:29;97815.16;;;-4.35;59.42
43298;BME280;28892;55.640;37.532;2023-12-04T03:56:55;97805.97;;;-4.28;59.18
43298;BME280;28892;55.640;37.532;2023-12-04T03:59:20;97825.81;;;-4.72;59.19
43298;BME280;28892;55.640;37.532;2023-12-04T04:01:46;97825.72;;;-4.82;60.17
43298;BME280;28892;55.640;37.532;2023-12-04T04:04:12;97829.94;;;-4.70;60.28
43298;BME280;28892;55.640;37.532;2023-12-04T04:06:38;97830.75;;;-4.58;59.67
43298;BME280;28892;55.640;37.532;2023-12-04T04:09:05;97824.84;;;-4.49;59.73
43298;BME280;28892;55.640;37.532;2023-12-04T04:11:31;97845.06;;;-4.42;59.91
43298;BME280;28892;55.640;37.532;2023-12-04T04:13:57;97839.19;;;-4.44;59.67
43298;BME280;28892;55.640;37.532;2023-12-04T04:16:23;97839.19;;;-4.44;59.94
43298;BME280;28892;55.640;37.532;2023-12-04T04:18:49;97845.75;;;-4.29;60.22
43298;BME280;28892;55.640;37.532;2023-12-04T04:21:14;97833.44;;;-4.48;59.90
43298;BME280;28892;55.640;37.532;2023-12-04T04:23:40;97846.72;;;-4.53;60.10
43298;BME280;28892;55.640;37.532;2023-12-04T04:26:06;97846.81;;;-4.31;60.10
43298;BME280;28892;55.640;37.532;2023-12-04T04:28:32;97855.25;;;-4.18;59.83
43298;BME280;28892;55.640;37.532;2023-12-04T04:30:58;97854.38;;;-4.07;59.58
43298;BME280;28892;55.640;37.532;2023-12-04T04:33:23;97841.41;;;-3.96;59.54
43298;BME280;28892;55.640;37.532;2023-12-04T04:35:49;97857.97;;;-3.87;59.31
43298;BME280;28892;55.640;37.532;2023-12-04T04:38:15;97859.88;;;-3.89;58.36
43298;BME280;28892;55.640;37.532;2023-12-04T04:40:41;97862.25;;;-3.97;58.35
43298;BME280;28892;55.640;37.532;2023-12-04T04:43:09;97850.19;;;-4.19;58.85
43298;BME280;28892;55.640;37.532;2023-12-04T04:45:35;97867.19;;;-4.27;59.00
43298;BME280;28892;55.640;37.532;2023-12-04T04:48:01;97876.25;;;-5.01;59.93
43298;BME280;28892;55.640;37.532;2023-12-04T04:50:27;97868.94;;;-5.30;61.46
43298;BME280;28892;55.640;37.532;2023-12-04T04:52:52;97878.72;;;-5.22;62.03
43298;BME280;28892;55.640;37.532;2023-12-04T04:55:18;97878.28;;;-4.82;61.26
43298;BME280;28892;55.640;37.532;2023-12-04T04:57:44;97875.91;;;-4.62;61.17
43298;BME280;28892;55.640;37.532;2023-12-04T05:00:10;97895.56;;;-4.48;60.83
43298;BME280;28892;55.640;37.532;2023-12-04T05:02:49;97877.06;;;-4.43;60.65
43298;BME280;28892;55.640;37.532;2023-12-04T05:05:18;97895.53;;;-4.37;60.80
43298;BME280;28892;55.640;37.532;2023-12-04T05:07:49;97904.50;;;-4.41;60.23
43298;BME280;28892;55.640;37.532;2023-12-04T05:10:45;97897.19;;;-4.58;59.99
43298;BME280;28892;55.640;37.532;2023-12-04T05:13:41;97907.63;;;-5.17;61.33
43298;BME280;28892;55.640;37.532;2023-12-04T05:16:27;97891.09;;;-4.92;61.34
43298;BME280;28892;55.640;37.532;2023-12-04T05:18:55;97875.31;;;-4.77;61.15
43298;BME280;28892;55.640;37.532;2023-12-04T05:21:21;97903.06;;;-4.56;60.71
43298;BME280;28892;55.640;37.532;2023-12-04T05:23:47;97906.03;;;-4.38;60.46
43298;BME280;28892;55.640;37.532;2023-12-04T05:26:13;97875.56;;;-4.69;59.81
43298;BME280;28892;55.640;37.532;2023-12-04T05:28:39;97912.28;;;-4.64;60.57
43298;BME280;28892;55.640;37.532;2023-12-04T05:31:05;97906.38;;;-4.77;60.29
43298;BME280;28892;55.640;37.532;2023-12-04T05:33:31;97926.25;;;-4.55;60.47
43298;BME280;28892;55.640;37.532;2023-12-04T05:35:57;97928.69;;;-4.99;60.61
43298;BME280;28892;55.640;37.532;2023-12-04T05:38:23;97945.03;;;-4.98;60.98
43298;BME280;28892;55.640;37.532;2023-12-04T05:40:49;97944.34;;;-5.00;61.52
43298;BME280;28892;55.640;37.532;2023-12-04T05:43:15;97942.03;;;-4.81;61.04
43298;BME280;28892;55.640;37.532;2023-12-04T05:45:41;97931.31;;;-4.87;60.85
43298;BME280;28892;55.640;37.532;2023-12-04T05:48:07;97946.88;;;-4.65;60.95
43298;BME280;28892;55.640;37.532;2023-12-04T05:50:33;97955.31;;;-4.85;60.70
43298;BME280;28892;55.640;37.532;2023-12-04T05:53:01;97951.84;;;-4.97;61.21
43298;BME280;28892;55.640;37.532;2023-12-04T05:55:27;97965.00;;;-5.12;61.67
43298;BME280;28892;55.640;37.532;2023-12-04T05:57:53;97963.16;;;-4.87;61.47
43298;BME280;28892;55.640;37.532;2023-12-04T06:00:19;97976.81;;;-4.73;60.81
43298;BME280;28892;55.640;37.532;2023-12-04T06:02:45;97966.38;;;-4.72;60.99
43298;BME280;28892;55.640;37.532;2023-12-04T06:05:11;97981.81;;;-4.47;60.75
43298;BME280;28892;55.640;37.532;2023-12-04T06:07:37;97982.16;;;-4.29;59.92
43298;BME280;28892;55.640;37.532;2023-12-04T06:10:03;97986.16;;;-4.37;59.31
43298;BME280;28892;55.640;37.532;2023-12-04T06:12:32;97991.03;;;-4.79;59.84
43298;BME280;28892;55.640;37.532;2023-12-04T06:14:58;98000.38;;;-4.65;60.18
43298;BME280;28892;55.640;37.532;2023-12-04T06:17:24;97997.97;;;-4.91;60.17
43298;BME280;28892;55.640;37.532;2023-12-04T06:19:51;98007.59;;;-4.93;61.12
43298;BME280;28892;55.640;37.532;2023-12-04T06:22:17;98010.69;;;-4.77;60.67
43298;BME280;28892;55.640;37.532;2023-12-04T06:24:45;98012.59;;;-4.67;60.80
43298;BME280;28892;55.640;37.532;2023-12-04T06:27:15;98014.81;;;-4.74;60.32
43298;BME280;28892;55.640;37.532;2023-12-04T06:29:45;98024.53;;;-4.42;60.70
43298;BME280;28892;55.640;37.532;2023-12-04T06:32:11;98031.00;;;-4.13;59.67
43298;BME280;28892;55.640;37.532;2023-12-04T06:34:41;98035.94;;;-4.44;59.11
43298;BME280;28892;55.640;37.532;2023-12-04T06:37:09;98034.19;;;-4.44;59.43
43298;BME280;28892;55.640;37.532;2023-12-04T06:39:35;98034.38;;;-4.47;59.49
43298;BME280;28892;55.640;37.532;2023-12-04T06:42:03;98033.31;;;-4.67;59.01
43298;BME280;28892;55.640;37.532;2023-12-04T06:44:29;98042.13;;;-4.58;59.82
43298;BME280;28892;55.640;37.532;2023-12-04T06:46:55;98038.16;;;-4.40;59.36
43298;BME280;28892;55.640;37.532;2023-12-04T06:49:24;98044.97;;;-4.50;59.38
43298;BME280;28892;55.640;37.532;2023-12-04T06:51:50;98039.06;;;-5.35;60.76
43298;BME280;28892;55.640;37.532;2023-12-04T06:54:17;98050.75;;;-4.94;61.15
43298;BME280;28892;55.640;37.532;2023-12-04T06:56:43;98041.03;;;-4.79;60.82
43298;BME280;28892;55.640;37.532;2023-12-04T06:59:12;98046.59;;;-4.60;59.95
43298;BME280;28892;55.640;37.532;2023-12-04T07:01:38;98057.00;;;-4.38;59.59
43298;BME280;28892;55.640;37.532;2023-12-04T07:04:04;98046.06;;;-4.30;59.66
43298;BME280;28892;55.640;37.532;2023-12-04T07:06:35;98052.31;;;-4.21;58.92
43298;BME280;28892;55.640;37.532;2023-12-04T07:09:02;98048.19;;;-4.12;59.05
43298;BME280;28892;55.640;37.532;2023-12-04T07:11:48;98061.38;;;-4.04;59.05
43298;BME280;28892;55.640;37.532;2023-12-04T07:14:17;98068.19;;;-4.26;58.79
43298;BME280;28892;55.640;37.532;2023-12-04T07:16:43;98069.59;;;-4.44;59.35
43298;BME280;28892;55.640;37.532;2023-12-04T07:19:10;98081.84;;;-4.24;58.89
43298;BME280;28892;55.640;37.532;2023-12-04T07:21:36;98081.94;;;-4.37;59.12
43298;BME280;28892;55.640;37.532;2023-12-04T07:24:02;98082.31;;;-4.18;59.25
43298;BME280;28892;55.640;37.532;2023-12-04T07:26:30;98079.72;;;-4.30;58.81
43298;BME280;28892;55.640;37.532;2023-12-04T07:28:56;98085.75;;;-4.18;59.02
43298;BME280;28892;55.640;37.532;2023-12-04T07:31:22;98099.06;;;-4.11;58.51
43298;BME280;28892;55.640;37.532;2023-12-04T07:33:48;98094.22;;;-4.16;58.82
43298;BME280;28892;55.640;37.532;2023-12-04T07:36:14;98102.34;;;-4.09;58.85
43298;BME280;28892;55.640;37.532;2023-12-04T07:38:40;98100.25;;;-4.04;58.48
43298;BME280;28892;55.640;37.532;2023-12-04T07:41:05;98105.19;;;-4.01;58.82
43298;BME280;28892;55.640;37.532;2023-12-04T07:43:31;98116.38;;;-3.89;59.00
43298;BME280;28892;55.640;37.532;2023-12-04T07:45:58;98116.84;;;-3.84;58.84
43298;BME280;28892;55.640;37.532;2023-12-04T07:48:24;98117.19;;;-4.11;58.05
43298;BME280;28892;55.640;37.532;2023-12-04T07:50:49;98129.78;;;-4.07;58.66
43298;BME280;28892;55.640;37.532;2023-12-04T07:53:15;98139.91;;;-3.92;58.85
43298;BME280;28892;55.640;37.532;2023-12-04T07:55:41;98126.97;;;-3.92;58.15
43298;BME280;28892;55.640;37.532;2023-12-04T07:58:09;98139.22;;;-3.94;58.26
43298;BME280;28892;55.640;37.532;2023-12-04T08:00:35;98140.59;;;-4.01;58.29
43298;BME280;28892;55.640;37.532;2023-12-04T08:03:01;98136.84;;;-4.09;58.56
43298;BME280;28892;55.640;37.532;2023-12-04T08:05:30;98146.28;;;-4.08;58.40
43298;BME280;28892;55.640;37.532;2023-12-04T08:07:57;98141.34;;;-3.88;58.72
43298;BME280;28892;55.640;37.532;2023-12-04T08:10:23;98131.34;;;-3.81;58.39
43298;BME280;28892;55.640;37.532;2023-12-04T08:12:49;98132.88;;;-3.67;58.39
43298;BME280;28892;55.640;37.532;2023-12-04T08:15:15;98131.94;;;-3.77;57.34
43298;BME280;28892;55.640;37.532;2023-12-04T08:17:41;98142.75;;;-4.07;57.75
43298;BME280;28892;55.640;37.532;2023-12-04T08:20:07;98147.00;;;-3.94;58.27
43298;BME280;28892;55.640;37.532;2023-12-04T08:22:41;98134.97;;;-4.07;58.04
43298;BME280;28892;55.640;37.532;2023-12-04T08:25:07;98148.78;;;-4.42;58.29
43298;BME280;28892;55.640;37.532;2023-12-04T08:27:35;98145.09;;;-4.51;58.85
43298;BME280;28892;55.640;37.532;2023-12-04T08:30:01;98140.78;;;-4.74;58.24
43298;BME280;28892;55.640;37.532;2023-12-04T08:32:29;98152.44;;;-4.33;57.89
43298;BME280;28892;55.640;37.532;2023-12-04T08:34:55;98162.88;;;-4.46;58.10
43298;BME280;28892;55.640;37.532;2023-12-04T08:37:21;98163.19;;;-4.15;57.96
43298;BME280;28892;55.640;37.532;2023-12-04T08:39:47;98160.19;;;-3.97;58.03
43298;BME280;28892;55.640;37.532;2023-12-04T08:42:13;98170.06;;;-3.80;57.74
43298;BME280;28892;55.640;37.532;2023-12-04T08:44:39;98164.56;;;-3.63;57.86
43298;BME280;28892;55.640;37.532;2023-12-04T08:47:05;98174.22;;;-3.43;57.82
43298;BME280;28892;55.640;37.532;2023-12-04T08:49:31;98171.75;;;-3.44;56.85
43298;BME280;28892;55.640;37.532;2023-12-04T08:51:58;98171.06;;;-3.35;57.35
43298;BME280;28892;55.640;37.532;2023-12-04T08:54:24;98173.72;;;-3.14;56.84
43298;BME280;28892;55.640;37.532;2023-12-04T08:56:53;98178.59;;;-3.77;55.99
43298;BME280;28892;55.640;37.532;2023-12-04T08:59:19;98186.03;;;-3.50;57.18
43298;BME280;28892;55.640;37.532;2023-12-04T09:01:45;98177.28;;;-3.49;56.08
43298;BME280;28892;55.640;37.532;2023-12-04T09:04:11;98191.78;;;-3.24;57.06
43298;BME280;28892;55.640;37.532;2023-12-04T09:06:38;98185.88;;;-3.60;56.18
43298;BME280;28892;55.640;37.532;2023-12-04T09:09:03;98188.00;;;-3.65;56.66
43298;BME280;28892;55.640;37.532;2023-12-04T09:11:29;98186.13;;;-3.29;56.38
43298;BME280;28892;55.640;37.532;2023-12-04T09:13:55;98195.88;;;-3.21;56.17
43298;BME280;28892;55.640;37.532;2023-12-04T09:16:23;98179.59;;;-3.12;56.02
43298;BME280;28892;55.640;37.532;2023-12-04T09:18:52;98198.72;;;-3.13;55.44
43298;BME280;28892;55.640;37.532;2023-12-04T09:21:19;98195.91;;;-3.32;54.99
43298;BME280;28892;55.640;37.532;2023-12-04T09:23:51;98201.09;;;-3.44;55.84
43298;BME280;28892;55.640;37.532;2023-12-04T09:26:21;98194.16;;;-3.43;55.32
43298;BME280;28892;55.640;37.532;2023-12-04T09:28:47;98196.84;;;-3.22;55.20
43298;BME280;28892;55.640;37.532;2023-12-04T09:31:13;98201.66;;;-3.17;54.58
43298;BME280;28892;55.640;37.532;2023-12-04T09:33:40;98202.38;;;-2.92;55.35
43298;BME280;28892;55.640;37.532;2023-12-04T09:36:07;98188.94;;;-3.09;54.05
43298;BME280;28892;55.640;37.532;2023-12-04T09:38:33;98210.06;;;-3.25;55.26
43298;BME280;28892;55.640;37.532;2023-12-04T09:41:00;98213.41;;;-2.79;55.52
43298;BME280;28892;55.640;37.532;2023-12-04T09:43:31;98210.88;;;-2.58;54.08
43298;BME280;28892;55.640;37.532;2023-12-04T09:45:59;98231.75;;;-1.94;54.14
43298;BME280;28892;55.640;37.532;2023-12-04T09:48:25;98220.91;;;-1.78;53.38
43298;BME280;28892;55.640;37.532;2023-12-04T09:50:52;98220.59;;;-1.22;52.82
43298;BME280;28892;55.640;37.532;2023-12-04T09:53:18;98242.59;;;-1.36;52.22
43298;BME280;28892;55.640;37.532;2023-12-04T09:55:49;98219.31;;;-1.38;52.33
43298;BME280;28892;55.640;37.532;2023-12-04T09:58:15;98241.88;;;-1.91;51.97
43298;BME280;28892;55.640;37.532;2023-12-04T10:00:44;98242.00;;;-2.14;52.86
43298;BME280;28892;55.640;37.532;2023-12-04T10:03:10;98238.31;;;-2.44;52.49
43298;BME280;28892;55.640;37.532;2023-12-04T10:05:36;98258.88;;;-2.52;53.60
43298;BME280;28892;55.640;37.532;2023-12-04T10:08:02;98257.41;;;-2.89;52.84
43298;BME280;28892;55.640;37.532;2023-12-04T10:10:28;98259.66;;;-2.84;53.56
43298;BME280;28892;55.640;37.532;2023-12-04T10:12:57;98276.38;;;-2.65;54.04
43298;BME280;28892;55.640;37.532;2023-12-04T10:15:31;98261.72;;;-2.55;53.65
43298;BME280;28892;55.640;37.532;2023-12-04T10:17:57;98275.56;;;-2.66;53.79
43298;BME280;28892;55.640;37.532;2023-12-04T10:20:29;98275.63;;;-2.45;53.67
43298;BME280;28892;55.640;37.532;2023-12-04T10:25:21;98259.97;;;-2.66;53.65
43298;BME280;28892;55.640;37.532;2023-12-04T10:27:50;98293.72;;;-2.43;53.59
43298;BME280;28892;55.640;37.532;2023-12-04T10:30:25;98267.75;;;-2.43;52.68
43298;BME280;28892;55.640;37.532;2023-12-04T10:32:55;98298.47;;;-2.83;53.47
43298;BME280;28892;55.640;37.532;2023-12-04T10:35:21;98300.25;;;-2.83;54.33
43298;BME280;28892;55.640;37.532;2023-12-04T10:37:51;98304.94;;;-2.65;54.39
43298;BME280;28892;55.640;37.532;2023-12-04T10:40:23;98313.69;;;-2.67;54.07
43298;BME280;28892;55.640;37.532;2023-12-04T10:43:10;98307.88;;;-2.59;54.10
43298;BME280;28892;55.640;37.532;2023-12-04T10:45:37;98305.28;;;-2.59;53.82
43298;BME280;28892;55.640;37.532;2023-12-04T10:48:25;98307.19;;;-2.61;54.17
43298;BME280;28892;55.640;37.532;2023-12-04T10:50:52;98317.66;;;-2.51;54.25
43298;BME280;28892;55.640;37.532;2023-12-04T10:53:18;98301.50;;;-2.66;53.34
43298;BME280;28892;55.640;37.532;2023-12-04T10:55:45;98311.34;;;-2.81;54.05
43298;BME280;28892;55.640;37.532;2023-12-04T10:58:13;98315.81;;;-2.95;54.33
43298;BME280;28892;55.640;37.532;2023-12-04T11:00:49;98317.25;;;-2.79;54.97
43298;BME280;28892;55.640;37.532;2023-12-04T11:03:28;98313.81;;;-3.14;54.38
43298;BME280;28892;55.640;37.532;2023-12-04T11:06:00;98320.06;;;-3.05;54.85
43298;BME280;28892;55.640;37.532;2023-12-04T11:08:29;98308.38;;;-3.22;55.03
43298;BME280;28892;55.640;37.532;2023-12-04T11:11:15;98329.81;;;-3.20;54.95
43298;BME280;28892;55.640;37.532;2023-12-04T11:13:44;98324.09;;;-3.12;54.87
43298;BME280;28892;55.640;37.532;2023-12-04T11:16:20;98330.75;;;-3.44;55.34
43298;BME280;28892;55.640;37.532;2023-12-04T11:18:48;98327.72;;;-3.26;55.87
43298;BME280;28892;55.640;37.532;2023-12-04T11:21:16;98334.91;;;-3.18;55.59
43298;BME280;28892;55.640;37.532;2023-12-04T11:23:44;98345.31;;;-2.96;55.64
43298;BME280;28892;55.640;37.532;2023-12-04T11:26:11;98338.06;;;-3.49;55.26
43298;BME280;28892;55.640;37.532;2023-12-04T11:28:37;98344.78;;;-3.46;55.85
43298;BME280;28892;55.640;37.532;2023-12-04T11:31:04;98351.31;;;-3.29;56.27
43298;BME280;28892;55.640;37.532;2023-12-04T11:33:36;98352.78;;;-3.49;56.30
43298;BME280;28892;55.640;37.532;2023-12-04T11:36:10;98349.28;;;-3.26;56.22
43298;BME280;28892;55.640;37.532;2023-12-04T11:38:38;98349.53;;;-3.06;55.13
43298;BME280;28892;55.640;37.532;2023-12-04T11:41:23;98334.94;;;-3.07;55.05
43298;BME280;28892;55.640;37.532;2023-12-04T11:43:50;98353.06;;;-3.18;54.67
43298;BME280;28892;55.640;37.532;2023-12-04T11:46:19;98357.56;;;-3.09;55.17
43298;BME280;28892;55.640;37.532;2023-12-04T11:52:01;98355.53;;;-3.40;55.13
43298;BME280;28892;55.640;37.532;2023-12-04T11:59:43;98376.47;;;-3.43;55.66
43298;BME280;28892;55.640;37.532;2023-12-04T12:02:10;98393.06;;;-3.57;55.74
43298;BME280;28892;55.640;37.532;2023-12-04T12:04:36;98377.63;;;-4.07;57.06
43298;BME280;28892;55.640;37.532;2023-12-04T12:07:07;98375.34;;;-3.63;56.51
43298;BME280;28892;55.640;37.532;2023-12-04T12:09:34;98384.31;;;-3.67;56.49
43298;BME280;28892;55.640;37.532;2023-12-04T12:12:01;98381.09;;;-3.46;56.53
43298;BME280;28892;55.640;37.532;2023-12-04T12:14:28;98387.75;;;-3.80;55.62
43298;BME280;28892;55.640;37.532;2023-12-04T12:16:57;98396.06;;;-3.74;56.49
43298;BME280;28892;55.640;37.532;2023-12-04T12:19:31;98394.38;;;-3.51;56.23
43298;BME280;28892;55.640;37.532;2023-12-04T12:22:05;98395.84;;;-3.35;55.94
43298;BME280;28892;55.640;37.532;2023-12-04T12:24:32;98388.19;;;-3.26;55.94
43298;BME280;28892;55.640;37.532;2023-12-04T12:26:58;98399.97;;;-3.33;55.72
43298;BME280;28892;55.640;37.532;2023-12-04T12:29:24;98397.41;;;-3.21;56.05
43298;BME280;28892;55.640;37.532;2023-12-04T12:31:50;98396.28;;;-3.42;55.10
43298;BME280;28892;55.640;37.532;2023-12-04T12:34:17;98406.41;;;-3.50;55.81
43298;BME280;28892;55.640;37.532;2023-12-04T12:36:43;98403.13;;;-3.76;56.11
43298;BME280;28892;55.640;37.532;2023-12-04T12:39:12;98414.31;;;-4.00;56.88
43298;BME280;28892;55.640;37.532;2023-12-04T12:41:38;98413.94;;;-3.96;56.95
43298;BME280;28892;55.640;37.532;2023-12-04T12:44:05;98410.38;;;-3.82;57.11
43298;BME280;28892;55.640;37.532;2023-12-04T12:46:31;98422.72;;;-3.61;56.95
43298;BME280;28892;55.640;37.532;2023-12-04T12:48:59;98414.47;;;-3.66;55.94
43298;BME280;28892;55.640;37.532;2023-12-04T12:51:26;98423.63;;;-3.73;56.54
43298;BME280;28892;55.640;37.532;2023-12-04T12:53:52;98423.38;;;-3.70;56.82
43298;BME280;28892;55.640;37.532;2023-12-04T12:56:21;98419.72;;;-3.55;56.87
43298;BME280;28892;55.640;37.532;2023-12-04T12:58:47;98425.28;;;-3.72;56.50
43298;BME280;28892;55.640;37.532;2023-12-04T13:01:13;98427.59;;;-3.56;56.79